sensor_id;sensor_type;location;lat;lon;timestamp;pressure;altitude;pressure_sealevel;temperature;humidity
76590;BME280;65471;55.908;37.880;2023-03-05T00:01:05;96821.50;;;-0.53;78.40
76590;BME280;65471;55.908;37.880;2023-03-05T00:03:32;96829.94;;;-0.56;78.98
76590;BME280;65471;55.908;37.880;2023-03-05T00:05:59;96828.53;;;-0.59;78.83
76590;BME280;65471;55.908;37.880;2023-03-05T00:08:27;96830.63;;;-0.61;78.63
76590;BME280;65471;55.908;37.880;2023-03-05T00:11:14;96823.94;;;-0.63;79.18
76590;BME280;65471;55.908;37.880;2023-03-05T00:13:42;96826.34;;;-0.62;79.07
76590;BME280;65471;55.908;37.880;2023-03-05T00:16:11;96829.00;;;-0.62;79.32
76590;BME280;65471;55.908;37.880;2023-03-05T00:18:38;96826.47;;;-0.57;78.89
76590;BME280;65471;55.908;37.880;2023-03-05T00:21:20;96819.91;;;-0.54;79.14
76590;BME280;65471;55.908;37.880;2023-03-05T00:23:47;96824.72;;;-0.63;78.83
76590;BME280;65471;55.908;37.880;2023-03-05T00:26:16;96826.25;;;-0.67;78.81
76590;BME280;65471;55.908;37.880;2023-03-05T00:28:43;96819.22;;;-0.73;79.21
76590;BME280;65471;55.908;37.880;2023-03-05T00:31:16;96830.06;;;-0.75;79.20
76590;BME280;65471;55.908;37.880;2023-03-05T00:33:43;96820.03;;;-0.73;78.95
76590;BME280;65471;55.908;37.880;2023-03-05T00:36:10;96824.28;;;-0.72;79.28
76590;BME280;65471;55.908;37.880;2023-03-05T00:38:37;96828.00;;;-0.73;79.24
76590;BME280;65471;55.908;37.880;2023-03-05T00:41:03;96817.81;;;-0.76;78.97
76590;BME280;65471;55.908;37.880;2023-03-05T00:43:30;96823.13;;;-0.76;79.11
76590;BME280;65471;55.908;37.880;2023-03-05T00:45:57;96820.47;;;-0.76;79.44
76590;BME280;65471;55.908;37.880;2023-03-05T00:48:24;96816.22;;;-0.77;78.92
76590;BME280;65471;55.908;37.880;2023-03-05T00:50:52;96814.63;;;-0.78;78.64
76590;BME280;65471;55.908;37.880;2023-03-05T00:53:20;96801.94;;;-0.88;78.71
76590;BME280;65471;55.908;37.880;2023-03-05T00:55:47;96817.59;;;-0.86;79.10
76590;BME280;65471;55.908;37.880;2023-03-05T00:58:14;96826.03;;;-0.89;79.34
76590;BME280;65471;55.908;37.880;2023-03-05T01:00:41;96830.78;;;-0.91;79.31
76590;BME280;65471;55.908;37.880;2023-03-05T01:03:08;96834.00;;;-0.89;79.36
76590;BME280;65471;55.908;37.880;2023-03-05T01:05:35;96820.38;;;-0.93;79.13
76590;BME280;65471;55.908;37.880;2023-03-05T01:08:02;96823.63;;;-0.91;79.31
76590;BME280;65471;55.908;37.880;2023-03-05T01:10:29;96819.69;;;-0.88;79.40
76590;BME280;65471;55.908;37.880;2023-03-05T01:12:56;96820.16;;;-0.91;79.39
76590;BME280;65471;55.908;37.880;2023-03-05T01:15:24;96824.09;;;-0.94;79.04
76590;BME280;65471;55.908;37.880;2023-03-05T01:17:51;96831.22;;;-0.94;79.21
76590;BME280;65471;55.908;37.880;2023-03-05T01:20:20;96823.72;;;-0.97;79.42
76590;BME280;65471;55.908;37.880;2023-03-05T01:22:47;96828.47;;;-0.99;78.84
76590;BME280;65471;55.908;37.880;2023-03-05T01:25:15;96823.63;;;-1.02;78.96
76590;BME280;65471;55.908;37.880;2023-03-05T01:27:42;96823.84;;;-1.04;78.89
76590;BME280;65471;55.908;37.880;2023-03-05T01:30:10;96825.81;;;-0.99;79.03
76590;BME280;65471;55.908;37.880;2023-03-05T01:32:37;96826.50;;;-1.04;79.37
76590;BME280;65471;55.908;37.880;2023-03-05T01:35:05;96820.03;;;-1.08;78.95
76590;BME280;65471;55.908;37.880;2023-03-05T01:37:32;96821.78;;;-1.14;78.97
76590;BME280;65471;55.908;37.880;2023-03-05T01:39:58;96824.28;;;-1.19;79.13
76590;BME280;65471;55.908;37.880;2023-03-05T01:42:25;96819.00;;;-1.19;79.10
76590;BME280;65471;55.908;37.880;2023-03-05T01:45:09;96822.91;;;-1.22;78.97
76590;BME280;65471;55.908;37.880;2023-03-05T01:47:36;96821.50;;;-1.24;79.04
76590;BME280;65471;55.908;37.880;2023-03-05T01:50:05;96827.88;;;-1.25;79.36
76590;BME280;65471;55.908;37.880;2023-03-05T01:52:34;96818.38;;;-1.33;79.35
76590;BME280;65471;55.908;37.880;2023-03-05T01:55:22;96826.94;;;-1.31;78.95
76590;BME280;65471;55.908;37.880;2023-03-05T01:57:58;96820.81;;;-1.31;79.07
76590;BME280;65471;55.908;37.880;2023-03-05T02:00:42;96819.09;;;-1.37;78.64
76590;BME280;65471;55.908;37.880;2023-03-05T02:03:12;96817.22;;;-1.37;78.76
76590;BME280;65471;55.908;37.880;2023-03-05T02:05:41;96811.13;;;-1.37;78.51
76590;BME280;65471;55.908;37.880;2023-03-05T02:08:12;96811.00;;;-1.43;78.34
76590;BME280;65471;55.908;37.880;2023-03-05T02:10:45;96818.00;;;-1.48;78.71
76590;BME280;65471;55.908;37.880;2023-03-05T02:13:23;96821.50;;;-1.48;78.51
76590;BME280;65471;55.908;37.880;2023-03-05T02:15:53;96820.31;;;-1.52;78.60
76590;BME280;65471;55.908;37.880;2023-03-05T02:18:21;96803.72;;;-1.71;78.61
76590;BME280;65471;55.908;37.880;2023-03-05T02:23:24;96814.56;;;-1.61;78.68
76590;BME280;65471;55.908;37.880;2023-03-05T02:25:52;96809.81;;;-1.59;78.39
76590;BME280;65471;55.908;37.880;2023-03-05T02:30:46;96817.75;;;-1.70;78.34
76590;BME280;65471;55.908;37.880;2023-03-05T02:33:13;96799.28;;;-1.89;78.56
76590;BME280;65471;55.908;37.880;2023-03-05T02:35:40;96812.44;;;-1.82;79.01
76590;BME280;65471;55.908;37.880;2023-03-05T02:38:10;96814.16;;;-1.76;78.56
76590;BME280;65471;55.908;37.880;2023-03-05T02:40:37;96799.41;;;-1.84;78.65
76590;BME280;65471;55.908;37.880;2023-03-05T02:43:05;96818.53;;;-1.70;78.44
76590;BME280;65471;55.908;37.880;2023-03-05T02:45:32;96818.22;;;-1.74;78.31
76590;BME280;65471;55.908;37.880;2023-03-05T02:47:59;96812.06;;;-1.74;78.40
76590;BME280;65471;55.908;37.880;2023-03-05T02:50:27;96811.84;;;-1.73;78.26
76590;BME280;65471;55.908;37.880;2023-03-05T02:52:54;96804.97;;;-1.74;77.86
76590;BME280;65471;55.908;37.880;2023-03-05T02:55:20;96811.75;;;-1.78;77.62
76590;BME280;65471;55.908;37.880;2023-03-05T02:57:47;96789.94;;;-1.92;78.12
76590;BME280;65471;55.908;37.880;2023-03-05T03:00:15;96806.66;;;-1.79;78.11
76590;BME280;65471;55.908;37.880;2023-03-05T03:02:42;96807.69;;;-1.80;78.22
76590;BME280;65471;55.908;37.880;2023-03-05T03:05:09;96805.72;;;-1.85;78.21
76590;BME280;65471;55.908;37.880;2023-03-05T03:07:35;96797.78;;;-1.85;78.67
76590;BME280;65471;55.908;37.880;2023-03-05T03:10:03;96803.44;;;-1.81;78.50
76590;BME280;65471;55.908;37.880;2023-03-05T03:12:30;96806.66;;;-1.79;78.64
76590;BME280;65471;55.908;37.880;2023-03-05T03:14:59;96789.00;;;-1.85;78.25
76590;BME280;65471;55.908;37.880;2023-03-05T03:17:28;96803.56;;;-1.76;78.08
76590;BME280;65471;55.908;37.880;2023-03-05T03:19:55;96800.31;;;-1.78;78.30
76590;BME280;65471;55.908;37.880;2023-03-05T03:22:22;96801.59;;;-1.81;78.23
76590;BME280;65471;55.908;37.880;2023-03-05T03:24:48;96802.63;;;-1.82;78.65
76590;BME280;65471;55.908;37.880;2023-03-05T03:27:15;96803.56;;;-1.76;78.25
76590;BME280;65471;55.908;37.880;2023-03-05T03:29:42;96793.19;;;-1.89;78.13
76590;BME280;65471;55.908;37.880;2023-03-05T03:32:09;96798.81;;;-1.86;78.55
76590;BME280;65471;55.908;37.880;2023-03-05T03:34:35;96788.53;;;-1.94;78.71
76590;BME280;65471;55.908;37.880;2023-03-05T03:37:02;96798.66;;;-1.91;78.92
76590;BME280;65471;55.908;37.880;2023-03-05T03:39:29;96796.97;;;-1.85;78.88
76590;BME280;65471;55.908;37.880;2023-03-05T03:41:56;96804.47;;;-1.82;78.53
76590;BME280;65471;55.908;37.880;2023-03-05T03:44:23;96802.06;;;-1.84;78.65
76590;BME280;65471;55.908;37.880;2023-03-05T03:46:50;96804.09;;;-1.86;78.48
76590;BME280;65471;55.908;37.880;2023-03-05T03:49:23;96795.25;;;-1.80;78.84
76590;BME280;65471;55.908;37.880;2023-03-05T03:51:51;96802.84;;;-1.83;78.54
76590;BME280;65471;55.908;37.880;2023-03-05T03:54:20;96808.94;;;-1.83;78.27
76590;BME280;65471;55.908;37.880;2023-03-05T03:56:47;96794.91;;;-1.83;78.60
76590;BME280;65471;55.908;37.880;2023-03-05T03:59:14;96805.28;;;-1.82;78.71
76590;BME280;65471;55.908;37.880;2023-03-05T04:01:41;96799.53;;;-1.79;78.82
76590;BME280;65471;55.908;37.880;2023-03-05T04:04:09;96801.72;;;-1.76;78.64
76590;BME280;65471;55.908;37.880;2023-03-05T04:06:38;96805.41;;;-1.77;78.13
76590;BME280;65471;55.908;37.880;2023-03-05T04:09:06;96807.25;;;-1.77;78.24
76590;BME280;65471;55.908;37.880;2023-03-05T04:11:36;96798.84;;;-1.74;78.65
76590;BME280;65471;55.908;37.880;2023-03-05T04:14:03;96805.75;;;-1.73;78.25
76590;BME280;65471;55.908;37.880;2023-03-05T04:16:30;96802.31;;;-1.74;78.18
76590;BME280;65471;55.908;37.880;2023-03-05T04:18:57;96794.81;;;-1.77;78.17
76590;BME280;65471;55.908;37.880;2023-03-05T04:21:24;96799.41;;;-1.84;78.57
76590;BME280;65471;55.908;37.880;2023-03-05T04:23:51;96808.50;;;-1.80;78.65
76590;BME280;65471;55.908;37.880;2023-03-05T04:26:17;96806.22;;;-1.76;78.76
76590;BME280;65471;55.908;37.880;2023-03-05T04:28:45;96813.94;;;-1.75;78.24
76590;BME280;65471;55.908;37.880;2023-03-05T04:31:13;96816.00;;;-1.77;78.52
76590;BME280;65471;55.908;37.880;2023-03-05T04:33:40;96811.84;;;-1.73;78.38
76590;BME280;65471;55.908;37.880;2023-03-05T04:36:07;96813.63;;;-1.66;78.05
76590;BME280;65471;55.908;37.880;2023-03-05T04:38:34;96816.94;;;-1.71;78.04
76590;BME280;65471;55.908;37.880;2023-03-05T04:41:01;96812.31;;;-1.76;77.91
76590;BME280;65471;55.908;37.880;2023-03-05T04:43:27;96816.94;;;-1.71;78.22
76590;BME280;65471;55.908;37.880;2023-03-05T04:45:54;96794.69;;;-1.82;78.22
76590;BME280;65471;55.908;37.880;2023-03-05T04:48:21;96816.59;;;-1.63;78.33
76590;BME280;65471;55.908;37.880;2023-03-05T04:50:48;96817.53;;;-1.57;78.04
76590;BME280;65471;55.908;37.880;2023-03-05T04:53:15;96813.50;;;-1.60;77.79
76590;BME280;65471;55.908;37.880;2023-03-05T04:55:42;96799.19;;;-1.70;77.72
76590;BME280;65471;55.908;37.880;2023-03-05T04:58:09;96822.03;;;-1.58;77.94
76590;BME280;65471;55.908;37.880;2023-03-05T05:00:36;96825.00;;;-1.66;78.19
76590;BME280;65471;55.908;37.880;2023-03-05T05:03:03;96818.09;;;-1.67;78.68
76590;BME280;65471;55.908;37.880;2023-03-05T05:05:29;96819.47;;;-1.64;78.60
76590;BME280;65471;55.908;37.880;2023-03-05T05:07:57;96826.75;;;-1.60;78.57
76590;BME280;65471;55.908;37.880;2023-03-05T05:10:24;96804.50;;;-1.70;78.63
76590;BME280;65471;55.908;37.880;2023-03-05T05:12:52;96827.47;;;-1.52;78.84
76590;BME280;65471;55.908;37.880;2023-03-05T05:15:19;96817.91;;;-1.53;78.87
76590;BME280;65471;55.908;37.880;2023-03-05T05:17:46;96825.03;;;-1.54;78.80
76590;BME280;65471;55.908;37.880;2023-03-05T05:20:15;96834.25;;;-1.57;78.92
76590;BME280;65471;55.908;37.880;2023-03-05T05:22:42;96832.97;;;-1.54;79.36
76590;BME280;65471;55.908;37.880;2023-03-05T05:25:10;96806.34;;;-1.71;79.38
76590;BME280;65471;55.908;37.880;2023-03-05T05:27:38;96796.19;;;-1.74;79.81
76590;BME280;65471;55.908;37.880;2023-03-05T05:30:06;96806.69;;;-1.67;79.42
76590;BME280;65471;55.908;37.880;2023-03-05T05:32:33;96829.91;;;-1.51;79.41
76590;BME280;65471;55.908;37.880;2023-03-05T05:35:02;96824.94;;;-1.47;79.37
76590;BME280;65471;55.908;37.880;2023-03-05T05:37:29;96839.34;;;-1.43;79.13
76590;BME280;65471;55.908;37.880;2023-03-05T05:39:56;96842.38;;;-1.40;79.13
76590;BME280;65471;55.908;37.880;2023-03-05T05:42:23;96836.25;;;-1.40;78.95
76590;BME280;65471;55.908;37.880;2023-03-05T05:44:50;96840.50;;;-1.39;78.95
76590;BME280;65471;55.908;37.880;2023-03-05T05:47:18;96844.78;;;-1.38;78.96
76590;BME280;65471;55.908;37.880;2023-03-05T05:49:45;96846.03;;;-1.41;78.90
76590;BME280;65471;55.908;37.880;2023-03-05T05:52:12;96842.13;;;-1.38;78.81
76590;BME280;65471;55.908;37.880;2023-03-05T05:54:39;96841.53;;;-1.40;79.15
76590;BME280;65471;55.908;37.880;2023-03-05T05:57:06;96840.50;;;-1.39;79.02
76590;BME280;65471;55.908;37.880;2023-03-05T05:59:33;96846.84;;;-1.40;79.06
76590;BME280;65471;55.908;37.880;2023-03-05T06:02:00;96848.13;;;-1.31;79.19
76590;BME280;65471;55.908;37.880;2023-03-05T06:04:27;96853.31;;;-1.24;78.94
76590;BME280;65471;55.908;37.880;2023-03-05T06:06:53;96845.59;;;-1.26;78.83
76590;BME280;65471;55.908;37.880;2023-03-05T06:09:20;96843.63;;;-1.30;78.78
76590;BME280;65471;55.908;37.880;2023-03-05T06:11:47;96851.50;;;-1.24;78.93
76590;BME280;65471;55.908;37.880;2023-03-05T06:14:14;96851.25;;;-1.22;78.85
76590;BME280;65471;55.908;37.880;2023-03-05T06:16:41;96848.84;;;-1.24;78.93
76590;BME280;65471;55.908;37.880;2023-03-05T06:19:10;96850.66;;;-1.24;78.77
76590;BME280;65471;55.908;37.880;2023-03-05T06:21:37;96849.63;;;-1.23;78.96
76590;BME280;65471;55.908;37.880;2023-03-05T06:24:05;96853.91;;;-1.22;79.00
76590;BME280;65471;55.908;37.880;2023-03-05T06:26:32;96855.31;;;-1.19;78.70
76590;BME280;65471;55.908;37.880;2023-03-05T06:28:59;96851.25;;;-1.22;78.65
76590;BME280;65471;55.908;37.880;2023-03-05T06:31:27;96858.88;;;-1.14;78.83
76590;BME280;65471;55.908;37.880;2023-03-05T06:33:58;96856.56;;;-1.10;78.76
76590;BME280;65471;55.908;37.880;2023-03-05T06:36:28;96858.75;;;-1.07;78.84
76590;BME280;65471;55.908;37.880;2023-03-05T06:38:56;96858.78;;;-0.95;79.08
76590;BME280;65471;55.908;37.880;2023-03-05T06:41:28;96852.31;;;-0.88;78.87
76590;BME280;65471;55.908;37.880;2023-03-05T06:43:58;96859.13;;;-0.80;78.88
76590;BME280;65471;55.908;37.880;2023-03-05T06:46:28;96863.53;;;-0.74;78.62
76590;BME280;65471;55.908;37.880;2023-03-05T06:48:57;96866.72;;;-0.72;79.03
76590;BME280;65471;55.908;37.880;2023-03-05T06:51:30;96863.84;;;-0.70;78.71
76590;BME280;65471;55.908;37.880;2023-03-05T06:54:03;96873.66;;;-0.71;78.98
76590;BME280;65471;55.908;37.880;2023-03-05T06:56:31;96866.41;;;-0.63;79.08
76590;BME280;65471;55.908;37.880;2023-03-05T06:58:58;96881.38;;;-0.57;78.59
76590;BME280;65471;55.908;37.880;2023-03-05T07:01:25;96879.88;;;-0.53;78.36
76590;BME280;65471;55.908;37.880;2023-03-05T07:03:53;96884.72;;;-0.50;78.13
76590;BME280;65471;55.908;37.880;2023-03-05T07:06:21;96882.91;;;-0.49;78.58
76590;BME280;65471;55.908;37.880;2023-03-05T07:08:48;96879.88;;;-0.53;78.15
76590;BME280;65471;55.908;37.880;2023-03-05T07:11:17;96884.03;;;-0.57;78.61
76590;BME280;65471;55.908;37.880;2023-03-05T07:13:45;96891.75;;;-0.56;78.08
76590;BME280;65471;55.908;37.880;2023-03-05T07:16:21;96887.38;;;-0.50;78.17
76590;BME280;65471;55.908;37.880;2023-03-05T07:18:48;96890.84;;;-0.49;78.12
76590;BME280;65471;55.908;37.880;2023-03-05T07:21:24;96894.53;;;-0.50;77.75
76590;BME280;65471;55.908;37.880;2023-03-05T07:23:55;96879.78;;;-0.58;77.71
76590;BME280;65471;55.908;37.880;2023-03-05T07:26:23;96892.69;;;-0.38;77.98
76590;BME280;65471;55.908;37.880;2023-03-05T07:28:50;96912.53;;;-0.29;77.76
76590;BME280;65471;55.908;37.880;2023-03-05T07:31:20;96903.97;;;-0.19;77.33
76590;BME280;65471;55.908;37.880;2023-03-05T07:33:49;96910.44;;;-0.15;77.33
76590;BME280;65471;55.908;37.880;2023-03-05T07:36:16;96916.78;;;-0.16;76.93
76590;BME280;65471;55.908;37.880;2023-03-05T07:38:43;96909.03;;;-0.18;77.43
76590;BME280;65471;55.908;37.880;2023-03-05T07:41:12;96903.25;;;-0.14;76.76
76590;BME280;65471;55.908;37.880;2023-03-05T07:43:40;96914.44;;;-0.01;76.48
76590;BME280;65471;55.908;37.880;2023-03-05T07:46:09;96929.78;;;0.09;76.97
76590;BME280;65471;55.908;37.880;2023-03-05T07:48:37;96925.16;;;0.16;76.49
76590;BME280;65471;55.908;37.880;2023-03-05T07:51:06;96927.69;;;0.23;76.32
76590;BME280;65471;55.908;37.880;2023-03-05T07:53:34;96928.59;;;0.17;76.49
76590;BME280;65471;55.908;37.880;2023-03-05T07:56:01;96940.97;;;0.23;76.65
76590;BME280;65471;55.908;37.880;2023-03-05T07:58:28;96945.91;;;0.31;76.61
76590;BME280;65471;55.908;37.880;2023-03-05T08:00:54;96943.34;;;0.37;76.53
76590;BME280;65471;55.908;37.880;2023-03-05T08:03:21;96950.72;;;0.46;76.47
76590;BME280;65471;55.908;37.880;2023-03-05T08:05:48;96963.16;;;0.58;75.92
76590;BME280;65471;55.908;37.880;2023-03-05T08:08:15;96963.25;;;0.63;76.05
76590;BME280;65471;55.908;37.880;2023-03-05T08:10:42;96969.84;;;0.60;75.53
76590;BME280;65471;55.908;37.880;2023-03-05T08:13:08;96976.44;;;0.58;75.82
76590;BME280;65471;55.908;37.880;2023-03-05T08:15:36;96969.63;;;0.62;76.22
76590;BME280;65471;55.908;37.880;2023-03-05T08:18:03;96977.28;;;0.46;75.24
76590;BME280;65471;55.908;37.880;2023-03-05T08:20:34;96983.13;;;0.31;75.93
76590;BME280;65471;55.908;37.880;2023-03-05T08:23:01;96984.72;;;0.32;76.42
76590;BME280;65471;55.908;37.880;2023-03-05T08:25:29;96996.50;;;0.37;75.72
76590;BME280;65471;55.908;37.880;2023-03-05T08:27:56;96990.03;;;0.44;76.55
76590;BME280;65471;55.908;37.880;2023-03-05T08:30:23;96986.03;;;0.59;75.97
76590;BME280;65471;55.908;37.880;2023-03-05T08:32:53;97000.31;;;0.69;75.98
76590;BME280;65471;55.908;37.880;2023-03-05T08:35:20;96997.88;;;0.80;75.70
76590;BME280;65471;55.908;37.880;2023-03-05T08:37:47;97005.22;;;0.90;75.39
76590;BME280;65471;55.908;37.880;2023-03-05T08:40:14;97011.00;;;0.98;75.13
76590;BME280;65471;55.908;37.880;2023-03-05T08:42:43;97009.94;;;0.99;74.48
76590;BME280;65471;55.908;37.880;2023-03-05T08:45:11;97020.31;;;1.01;74.79
76590;BME280;65471;55.908;37.880;2023-03-05T08:47:38;97025.88;;;0.99;75.10
76590;BME280;65471;55.908;37.880;2023-03-05T08:50:05;97023.66;;;1.08;74.63
76590;BME280;65471;55.908;37.880;2023-03-05T08:52:33;97024.16;;;1.22;74.24
76590;BME280;65471;55.908;37.880;2023-03-05T08:55:00;97029.41;;;1.34;74.32
76590;BME280;65471;55.908;37.880;2023-03-05T08:57:27;97028.00;;;1.43;73.60
76590;BME280;65471;55.908;37.880;2023-03-05T08:59:53;97024.13;;;1.51;73.73
76590;BME280;65471;55.908;37.880;2023-03-05T09:02:20;97034.69;;;1.46;72.98
76590;BME280;65471;55.908;37.880;2023-03-05T09:04:47;97039.28;;;1.33;72.95
76590;BME280;65471;55.908;37.880;2023-03-05T09:07:14;97041.38;;;1.31;73.42
76590;BME280;65471;55.908;37.880;2023-03-05T09:09:41;97048.53;;;1.31;73.21
76590;BME280;65471;55.908;37.880;2023-03-05T09:12:08;97037.63;;;1.15;73.07
76590;BME280;65471;55.908;37.880;2023-03-05T09:14:38;97050.53;;;1.24;73.09
76590;BME280;65471;55.908;37.880;2023-03-05T09:17:05;97046.84;;;1.25;72.47
76590;BME280;65471;55.908;37.880;2023-03-05T09:19:32;97055.97;;;1.29;72.76
76590;BME280;65471;55.908;37.880;2023-03-05T09:21:59;97061.53;;;1.27;72.84
76590;BME280;65471;55.908;37.880;2023-03-05T09:24:26;97065.91;;;1.33;72.54
76590;BME280;65471;55.908;37.880;2023-03-05T09:26:57;97067.56;;;1.23;72.29
76590;BME280;65471;55.908;37.880;2023-03-05T09:29:24;97074.88;;;1.15;72.95
76590;BME280;65471;55.908;37.880;2023-03-05T09:31:52;97068.38;;;1.23;73.00
76590;BME280;65471;55.908;37.880;2023-03-05T09:34:19;97078.97;;;1.35;72.98
76590;BME280;65471;55.908;37.880;2023-03-05T09:36:47;97089.47;;;1.42;73.06
76590;BME280;65471;55.908;37.880;2023-03-05T09:39:14;97086.47;;;1.38;72.48
76590;BME280;65471;55.908;37.880;2023-03-05T09:45:17;97099.25;;;0.95;73.28
76590;BME280;65471;55.908;37.880;2023-03-05T09:50:27;97117.66;;;0.85;74.50
76590;BME280;65471;55.908;37.880;2023-03-05T09:53:16;97112.69;;;0.89;74.07
76590;BME280;65471;55.908;37.880;2023-03-05T09:55:51;97113.81;;;1.05;74.29
76590;BME280;65471;55.908;37.880;2023-03-05T09:58:47;97123.72;;;1.09;74.29
76590;BME280;65471;55.908;37.880;2023-03-05T10:01:21;97127.31;;;1.15;74.17
76590;BME280;65471;55.908;37.880;2023-03-05T10:11:42;97145.13;;;1.02;73.67
76590;BME280;65471;55.908;37.880;2023-03-05T10:14:32;97134.75;;;1.01;73.24
76590;BME280;65471;55.908;37.880;2023-03-05T10:22:28;97163.38;;;1.23;72.35
76590;BME280;65471;55.908;37.880;2023-03-05T10:33:31;97181.13;;;1.05;71.20
76590;BME280;65471;55.908;37.880;2023-03-05T10:36:15;97186.59;;;0.98;71.42
76590;BME280;65471;55.908;37.880;2023-03-05T10:46:44;97207.53;;;0.59;71.98
76590;BME280;65471;55.908;37.880;2023-03-05T10:49:19;97216.78;;;0.45;72.38
76590;BME280;65471;55.908;37.880;2023-03-05T10:51:58;97221.38;;;0.38;73.10
76590;BME280;65471;55.908;37.880;2023-03-05T10:54:33;97235.13;;;0.34;73.51
76590;BME280;65471;55.908;37.880;2023-03-05T10:57:25;97237.88;;;0.28;73.66
76590;BME280;65471;55.908;37.880;2023-03-05T10:59:57;97237.19;;;0.32;73.85
76590;BME280;65471;55.908;37.880;2023-03-05T11:02:26;97245.53;;;0.36;73.80
76590;BME280;65471;55.908;37.880;2023-03-05T11:04:53;97246.94;;;0.39;73.65
76590;BME280;65471;55.908;37.880;2023-03-05T11:10:35;97262.66;;;0.40;74.18
76590;BME280;65471;55.908;37.880;2023-03-05T11:12:57;97263.59;;;0.46;73.79
76590;BME280;65471;55.908;37.880;2023-03-05T11:15:25;97265.78;;;0.37;73.18
76590;BME280;65471;55.908;37.880;2023-03-05T11:18:25;97271.53;;;0.34;73.62
76590;BME280;65471;55.908;37.880;2023-03-05T11:21:07;97278.84;;;0.39;73.74
76590;BME280;65471;55.908;37.880;2023-03-05T11:23:34;97275.72;;;0.42;73.73
76590;BME280;65471;55.908;37.880;2023-03-05T11:28:33;97293.06;;;0.44;74.00
76590;BME280;65471;55.908;37.880;2023-03-05T11:33:59;97301.91;;;0.68;73.49
76590;BME280;65471;55.908;37.880;2023-03-05T11:39:23;97306.28;;;0.86;73.71
76590;BME280;65471;55.908;37.880;2023-03-05T11:42:14;97315.09;;;0.87;73.45
76590;BME280;65471;55.908;37.880;2023-03-05T11:44:54;97314.59;;;0.78;72.92
76590;BME280;65471;55.908;37.880;2023-03-05T11:48:07;97332.63;;;0.64;73.09
76590;BME280;65471;55.908;37.880;2023-03-05T11:50:37;97332.16;;;0.56;73.32
76590;BME280;65471;55.908;37.880;2023-03-05T11:53:12;97337.47;;;0.56;73.36
76590;BME280;65471;55.908;37.880;2023-03-05T11:55:45;97341.66;;;0.63;73.10
76590;BME280;65471;55.908;37.880;2023-03-05T11:58:38;97343.53;;;0.75;72.70
76590;BME280;65471;55.908;37.880;2023-03-05T12:01:38;97355.19;;;0.62;72.84
76590;BME280;65471;55.908;37.880;2023-03-05T12:04:06;97366.91;;;0.42;73.34
76590;BME280;65471;55.908;37.880;2023-03-05T12:21:05;97394.47;;;0.60;72.71
76590;BME280;65471;55.908;37.880;2023-03-05T12:29:47;97408.84;;;0.71;72.07
76590;BME280;65471;55.908;37.880;2023-03-05T12:34:55;97413.38;;;0.82;72.28
76590;BME280;65471;55.908;37.880;2023-03-05T12:47:35;97444.28;;;0.83;71.34
76590;BME280;65471;55.908;37.880;2023-03-05T12:52:56;97453.09;;;0.95;70.73
76590;BME280;65471;55.908;37.880;2023-03-05T12:58:18;97465.38;;;0.96;69.69
76590;BME280;65471;55.908;37.880;2023-03-05T13:00:51;97465.09;;;0.86;70.03
76590;BME280;65471;55.908;37.880;2023-03-05T13:03:22;97463.94;;;0.82;69.49
76590;BME280;65471;55.908;37.880;2023-03-05T13:05:56;97468.78;;;0.85;70.09
76590;BME280;65471;55.908;37.880;2023-03-05T13:08:28;97468.69;;;0.80;69.11
76590;BME280;65471;55.908;37.880;2023-03-05T13:11:07;97477.75;;;0.72;69.08
76590;BME280;65471;55.908;37.880;2023-03-05T13:13:42;97471.75;;;0.77;69.30
76590;BME280;65471;55.908;37.880;2023-03-05T13:16:24;97493.94;;;0.71;68.52
76590;BME280;65471;55.908;37.880;2023-03-05T13:18:53;97474.69;;;0.57;69.09
76590;BME280;65471;55.908;37.880;2023-03-05T13:21:25;97499.00;;;0.60;68.75
76590;BME280;65471;55.908;37.880;2023-03-05T13:23:54;97490.88;;;0.55;68.57
76590;BME280;65471;55.908;37.880;2023-03-05T13:26:29;97506.09;;;0.48;68.17
76590;BME280;65471;55.908;37.880;2023-03-05T13:31:28;97505.34;;;0.41;69.02
76590;BME280;65471;55.908;37.880;2023-03-05T13:34:08;97516.00;;;0.41;69.00
76590;BME280;65471;55.908;37.880;2023-03-05T13:36:37;97513.72;;;0.44;68.57
76590;BME280;65471;55.908;37.880;2023-03-05T13:39:05;97514.13;;;0.41;68.64
76590;BME280;65471;55.908;37.880;2023-03-05T13:41:33;97520.63;;;0.45;68.40
76590;BME280;65471;55.908;37.880;2023-03-05T13:44:01;97531.44;;;0.50;69.17
76590;BME280;65471;55.908;37.880;2023-03-05T13:46:32;97523.69;;;0.49;69.02
76590;BME280;65471;55.908;37.880;2023-03-05T13:49:23;97533.84;;;0.52;68.28
76590;BME280;65471;55.908;37.880;2023-03-05T13:51:57;97529.22;;;0.47;68.56
76590;BME280;65471;55.908;37.880;2023-03-05T13:54:26;97502.47;;;0.24;68.60
76590;BME280;65471;55.908;37.880;2023-03-05T13:57:02;97532.44;;;0.31;68.45
76590;BME280;65471;55.908;37.880;2023-03-05T13:59:32;97543.97;;;0.25;68.68
76590;BME280;65471;55.908;37.880;2023-03-05T14:02:00;97544.19;;;0.23;69.04
76590;BME280;65471;55.908;37.880;2023-03-05T14:04:34;97549.66;;;0.28;68.56
76590;BME280;65471;55.908;37.880;2023-03-05T14:07:07;97551.47;;;0.09;68.29
76590;BME280;65471;55.908;37.880;2023-03-05T14:09:48;97560.38;;;0.22;68.77
76590;BME280;65471;55.908;37.880;2023-03-05T14:14:44;97565.91;;;0.20;68.99
76590;BME280;65471;55.908;37.880;2023-03-05T14:22:56;97580.66;;;0.16;69.40
76590;BME280;65471;55.908;37.880;2023-03-05T14:25:38;97585.75;;;0.17;68.96
76590;BME280;65471;55.908;37.880;2023-03-05T14:30:49;97585.22;;;0.09;68.97
76590;BME280;65471;55.908;37.880;2023-03-05T14:33:27;97599.00;;;-0.01;69.13
76590;BME280;65471;55.908;37.880;2023-03-05T14:35:56;97587.16;;;-0.05;68.99
76590;BME280;65471;55.908;37.880;2023-03-05T14:38:26;97605.75;;;-0.05;69.57
76590;BME280;65471;55.908;37.880;2023-03-05T14:40:54;97607.19;;;-0.03;69.51
76590;BME280;65471;55.908;37.880;2023-03-05T14:43:21;97611.09;;;-0.05;69.57
76590;BME280;65471;55.908;37.880;2023-03-05T14:45:48;97620.06;;;-0.06;69.24
76590;BME280;65471;55.908;37.880;2023-03-05T14:48:16;97611.28;;;-0.07;69.47
76590;BME280;65471;55.908;37.880;2023-03-05T14:50:49;97603.16;;;-0.12;69.59